Time;durP1;ratioP1;P1;durP2;ratioP2;P2;SDS_P1;SDS_P2;PMS_P1;PMS_P2;Temp;Humidity;BMP_temperature;BMP_pressure;BME280_temperature;BME280_humidity;BME280_pressure;Samples;Min_cycle;Max_cycle;Signal;HPM_P1;HPM_P2
2023/03/27 00:01:20;;;;;;;7.97;1.60;;;;;;;;;;5033022;28;20465;-64
2023/03/27 00:03:49;;;;;;;9.75;1.77;;;;;;;;;;5032837;28;20025;-65
2023/03/27 00:06:15;;;;;;;5.13;1.95;;;;;;;;;;5034027;28;20052;-65
2023/03/27 00:08:42;;;;;;;8.32;1.90;;;;;;;;;;5034081;28;20025;-65
2023/03/27 00:11:08;;;;;;;8.77;1.80;;;;;;;;;;5033698;28;20018;-65
2023/03/27 00:13:35;;;;;;;8.27;2.13;;;;;;;;;;5033721;28;20057;-65
2023/03/27 00:16:01;;;;;;;5.57;1.58;;;;;;;;;;5033780;28;20030;-64
2023/03/27 00:18:28;;;;;;;11.85;2.38;;;;;;;;;;5033408;28;20120;-65
2023/03/27 00:20:57;;;;;;;7.35;1.80;;;;;;;;;;5033530;28;20033;-65
2023/03/27 00:23:23;;;;;;;3.83;1.50;;;;;;;;;;5032563;28;20021;-66
2023/03/27 00:25:50;;;;;;;3.30;1.20;;;;;;;;;;5033642;28;20029;-63
2023/03/27 00:28:17;;;;;;;11.02;2.88;;;;;;;;;;5033470;28;20155;-65
2023/03/27 00:30:44;;;;;;;4.75;1.58;;;;;;;;;;5033450;28;20021;-67
2023/03/27 00:33:11;;;;;;;3.47;1.27;;;;;;;;;;5033466;28;20096;-65
2023/03/27 00:35:37;;;;;;;10.25;2.00;;;;;;;;;;5033289;28;20045;-64
2023/03/27 00:38:03;;;;;;;7.25;1.95;;;;;;;;;;5033019;28;20053;-64
2023/03/27 00:40:31;;;;;;;7.22;1.38;;;;;;;;;;5033152;28;20049;-64
2023/03/27 00:42:58;;;;;;;4.22;1.50;;;;;;;;;;5033098;28;20462;-64
2023/03/27 00:45:27;;;;;;;8.43;1.45;;;;;;;;;;5033517;28;20355;-65
2023/03/27 00:47:56;;;;;;;10.80;2.00;;;;;;;;;;5033323;28;20183;-63
2023/03/27 00:50:23;;;;;;;7.13;1.73;;;;;;;;;;5033142;28;20013;-65
2023/03/27 00:52:57;;;;;;;8.68;1.40;;;;;;;;;;5032489;28;20028;-64
2023/03/27 00:55:25;;;;;;;10.10;1.70;;;;;;;;;;5033097;28;20642;-65
2023/03/27 00:57:52;;;;;;;7.38;1.42;;;;;;;;;;5032971;28;20033;-64
2023/03/27 01:00:18;;;;;;;4.47;1.73;;;;;;;;;;5032835;28;20034;-64
2023/03/27 01:02:48;;;;;;;9.40;1.80;;;;;;;;;;5032899;28;20029;-64
2023/03/27 01:05:14;;;;;;;9.75;1.85;;;;;;;;;;5032864;28;20103;-64
2023/03/27 01:07:40;;;;;;;7.88;1.52;;;;;;;;;;5032689;28;20025;-63
2023/03/27 01:10:08;;;;;;;6.80;1.38;;;;;;;;;;5032023;28;20029;-64
2023/03/27 01:12:34;;;;;;;5.43;1.42;;;;;;;;;;5032496;28;20083;-63
2023/03/27 01:15:20;;;;;;;7.85;1.75;;;;;;;;;;5032626;28;20048;-64
2023/03/27 01:17:50;;;;;;;7.00;1.65;;;;;;;;;;5031705;28;20041;-64
2023/03/27 01:20:35;;;;;;;4.80;1.30;;;;;;;;;;5032441;28;20513;-63
2023/03/27 01:23:16;;;;;;;7.88;1.50;;;;;;;;;;5032382;28;20496;-65
2023/03/27 01:26:06;;;;;;;8.27;2.20;;;;;;;;;;5031469;28;20116;-64
2023/03/27 01:28:50;;;;;;;5.15;1.48;;;;;;;;;;5031627;28;20033;-64
2023/03/27 01:31:28;;;;;;;10.50;1.98;;;;;;;;;;5032321;28;20025;-63
2023/03/27 01:34:08;;;;;;;2.78;1.38;;;;;;;;;;5032367;28;20108;-65
2023/03/27 01:36:49;;;;;;;8.90;1.67;;;;;;;;;;5032076;28;20505;-65
2023/03/27 01:39:34;;;;;;;7.00;1.70;;;;;;;;;;5032022;28;20163;-63
2023/03/27 01:42:32;;;;;;;5.00;1.70;;;;;;;;;;5031203;28;20568;-65
2023/03/27 01:45:07;;;;;;;11.93;2.13;;;;;;;;;;5030642;28;20084;-65
2023/03/27 01:47:36;;;;;;;8.60;2.20;;;;;;;;;;5031708;28;20021;-64
2023/03/27 01:50:06;;;;;;;6.47;1.92;;;;;;;;;;5031338;28;20025;-64
2023/03/27 01:52:35;;;;;;;6.22;1.80;;;;;;;;;;5031822;28;20454;-64
2023/03/27 01:55:03;;;;;;;6.35;1.55;;;;;;;;;;5031763;28;20470;-64
2023/03/27 01:57:36;;;;;;;7.97;1.83;;;;;;;;;;5031662;28;20037;-65
2023/03/27 02:00:16;;;;;;;8.70;1.95;;;;;;;;;;5030820;28;20385;-64
2023/03/27 02:02:55;;;;;;;3.20;1.55;;;;;;;;;;5031546;28;20033;-63
2023/03/27 02:05:30;;;;;;;5.65;1.58;;;;;;;;;;5031782;28;20097;-63
2023/03/27 02:08:00;;;;;;;14.27;1.60;;;;;;;;;;5031341;28;20096;-63
2023/03/27 02:10:28;;;;;;;4.53;1.38;;;;;;;;;;5031289;28;20025;-64
2023/03/27 02:12:58;;;;;;;3.67;1.50;;;;;;;;;;5031411;28;20029;-65
2023/03/27 02:15:27;;;;;;;5.13;1.50;;;;;;;;;;5031032;28;20037;-65
2023/03/27 02:17:56;;;;;;;4.40;1.48;;;;;;;;;;5031372;28;20025;-65
2023/03/27 02:20:23;;;;;;;7.05;1.73;;;;;;;;;;5031337;28;20585;-64
2023/03/27 02:22:49;;;;;;;9.48;2.03;;;;;;;;;;5031413;28;20045;-64
2023/03/27 02:25:23;;;;;;;7.80;1.73;;;;;;;;;;5031230;28;20030;-65
2023/03/27 02:27:51;;;;;;;10.23;2.30;;;;;;;;;;5031214;28;20022;-64
2023/03/27 02:30:20;;;;;;;5.75;1.77;;;;;;;;;;5031376;28;20068;-64
2023/03/27 02:32:55;;;;;;;6.85;2.10;;;;;;;;;;5030631;28;20043;-65
2023/03/27 02:35:21;;;;;;;11.38;2.65;;;;;;;;;;5031220;28;20037;-64
2023/03/27 02:38:04;;;;;;;4.45;1.40;;;;;;;;;;5030822;28;20018;-64
2023/03/27 02:40:42;;;;;;;3.30;1.45;;;;;;;;;;5030918;28;20401;-64
2023/03/27 02:43:21;;;;;;;8.23;1.60;;;;;;;;;;5031194;28;20502;-64
2023/03/27 02:45:51;;;;;;;6.95;1.70;;;;;;;;;;5031430;28;20052;-64
2023/03/27 02:48:30;;;;;;;8.73;1.70;;;;;;;;;;5030028;28;20067;-66
2023/03/27 02:50:59;;;;;;;9.30;2.33;;;;;;;;;;5030556;28;20025;-64
2023/03/27 02:53:27;;;;;;;6.32;1.45;;;;;;;;;;5031206;28;20109;-64
2023/03/27 02:55:56;;;;;;;9.05;1.63;;;;;;;;;;5031275;28;20485;-64
2023/03/27 02:58:25;;;;;;;8.00;1.58;;;;;;;;;;5031108;28;20045;-64
2023/03/27 03:00:52;;;;;;;7.35;1.50;;;;;;;;;;5030919;28;20072;-64
2023/03/27 03:03:18;;;;;;;6.25;2.17;;;;;;;;;;5033654;28;20018;-63
2023/03/27 03:05:44;;;;;;;4.20;1.55;;;;;;;;;;5034538;28;20044;-64
2023/03/27 03:08:10;;;;;;;6.10;1.60;;;;;;;;;;5034926;28;20021;-63
2023/03/27 03:10:42;;;;;;;6.47;1.45;;;;;;;;;;5034666;28;20378;-65
2023/03/27 03:13:08;;;;;;;6.63;2.40;;;;;;;;;;5034945;28;20029;-63
2023/03/27 03:15:34;;;;;;;8.30;1.77;;;;;;;;;;5034993;28;20112;-65
2023/03/27 03:18:01;;;;;;;5.18;1.85;;;;;;;;;;5041458;28;20067;-63
2023/03/27 03:20:28;;;;;;;3.75;1.30;;;;;;;;;;5054582;28;20033;-65
2023/03/27 03:22:55;;;;;;;4.72;1.42;;;;;;;;;;5053293;28;20024;-64
2023/03/27 03:25:21;;;;;;;8.95;1.95;;;;;;;;;;5054599;28;20067;-63
2023/03/27 03:27:47;;;;;;;6.05;1.50;;;;;;;;;;5054520;28;20056;-64
2023/03/27 03:30:13;;;;;;;6.32;1.73;;;;;;;;;;5054662;28;20055;-64
2023/03/27 03:32:39;;;;;;;5.55;1.80;;;;;;;;;;5054349;28;20031;-64
2023/03/27 03:35:07;;;;;;;9.18;3.35;;;;;;;;;;5052607;28;20017;-65
2023/03/27 03:37:37;;;;;;;8.85;1.73;;;;;;;;;;5034495;28;20456;-64
2023/03/27 03:40:10;;;;;;;6.05;2.53;;;;;;;;;;5034108;28;20017;-64
2023/03/27 03:42:36;;;;;;;17.15;3.35;;;;;;;;;;5034425;28;20033;-63
2023/03/27 03:45:02;;;;;;;7.82;2.65;;;;;;;;;;5034496;28;20021;-63
2023/03/27 03:47:28;;;;;;;7.95;1.95;;;;;;;;;;5034181;28;20363;-63
2023/03/27 03:49:55;;;;;;;10.55;2.42;;;;;;;;;;5034145;28;20056;-63
2023/03/27 03:52:21;;;;;;;9.57;2.15;;;;;;;;;;5033606;28;20037;-63
2023/03/27 03:54:47;;;;;;;8.23;2.10;;;;;;;;;;5034096;28;20025;-65
2023/03/27 03:57:13;;;;;;;4.63;1.88;;;;;;;;;;5034350;28;20048;-64
2023/03/27 03:59:39;;;;;;;5.60;1.90;;;;;;;;;;5033911;28;20022;-64
2023/03/27 04:02:05;;;;;;;7.70;2.30;;;;;;;;;;5033817;28;20489;-63
2023/03/27 04:04:32;;;;;;;9.68;2.22;;;;;;;;;;5033913;28;20053;-64
2023/03/27 04:06:58;;;;;;;6.63;2.20;;;;;;;;;;5033837;28;20040;-64
2023/03/27 04:09:24;;;;;;;19.85;2.75;;;;;;;;;;5032946;28;20040;-64
2023/03/27 04:11:50;;;;;;;9.90;2.42;;;;;;;;;;5033819;28;20502;-63
2023/03/27 04:14:16;;;;;;;6.22;2.00;;;;;;;;;;5033329;28;20486;-64
2023/03/27 04:16:42;;;;;;;4.97;1.95;;;;;;;;;;5033605;28;20036;-64
2023/03/27 04:19:08;;;;;;;15.48;3.22;;;;;;;;;;5033806;28;20022;-64
2023/03/27 04:21:36;;;;;;;6.97;1.83;;;;;;;;;;5033355;28;20063;-63
2023/03/27 04:24:02;;;;;;;7.97;1.67;;;;;;;;;;5033036;28;20053;-63
2023/03/27 04:26:28;;;;;;;7.10;2.00;;;;;;;;;;5033562;28;20034;-64
2023/03/27 04:28:54;;;;;;;8.05;1.95;;;;;;;;;;5033453;28;20029;-63
2023/03/27 04:31:20;;;;;;;5.03;1.90;;;;;;;;;;5033622;28;20048;-64
2023/03/27 04:33:51;;;;;;;7.88;1.85;;;;;;;;;;5033275;28;20097;-65
2023/03/27 04:36:17;;;;;;;6.53;2.13;;;;;;;;;;5033170;28;20029;-63
2023/03/27 04:38:44;;;;;;;10.52;2.00;;;;;;;;;;5033484;28;20529;-63
2023/03/27 04:41:10;;;;;;;8.07;1.73;;;;;;;;;;5033114;28;20071;-63
2023/03/27 04:43:38;;;;;;;8.23;1.90;;;;;;;;;;5032495;28;20036;-63
2023/03/27 04:46:05;;;;;;;5.38;1.58;;;;;;;;;;5033280;28;20060;-64
2023/03/27 04:48:31;;;;;;;4.82;1.85;;;;;;;;;;5033273;28;20029;-62
2023/03/27 04:50:58;;;;;;;3.20;1.40;;;;;;;;;;5033074;28;20030;-63
2023/03/27 04:53:28;;;;;;;9.75;2.75;;;;;;;;;;5032978;28;20025;-64
2023/03/27 04:55:56;;;;;;;6.47;2.58;;;;;;;;;;5032887;28;20033;-64
2023/03/27 04:58:24;;;;;;;6.45;2.03;;;;;;;;;;5033072;28;20044;-63
2023/03/27 05:00:54;;;;;;;5.32;1.80;;;;;;;;;;5032064;28;20056;-64
2023/03/27 05:03:20;;;;;;;9.25;1.67;;;;;;;;;;5032851;28;20536;-64
2023/03/27 05:05:48;;;;;;;13.45;2.17;;;;;;;;;;5032560;28;20029;-63
2023/03/27 05:08:14;;;;;;;8.23;1.88;;;;;;;;;;5032614;28;20028;-64
2023/03/27 05:10:40;;;;;;;4.95;1.63;;;;;;;;;;5031320;28;20390;-64
2023/03/27 05:13:07;;;;;;;7.97;1.45;;;;;;;;;;5032842;28;20022;-63
2023/03/27 05:15:33;;;;;;;6.20;2.20;;;;;;;;;;5032562;28;20100;-63
2023/03/27 05:17:59;;;;;;;5.20;1.83;;;;;;;;;;5031945;28;20402;-64
2023/03/27 05:20:26;;;;;;;6.95;1.92;;;;;;;;;;5032322;28;20080;-64
2023/03/27 05:22:53;;;;;;;4.65;2.08;;;;;;;;;;5032598;28;20026;-64
2023/03/27 05:25:19;;;;;;;4.15;2.00;;;;;;;;;;5031619;28;20061;-64
2023/03/27 05:27:46;;;;;;;6.75;2.05;;;;;;;;;;5032212;28;20112;-64
2023/03/27 05:30:13;;;;;;;6.15;2.08;;;;;;;;;;5032277;28;20037;-65
2023/03/27 05:32:39;;;;;;;8.70;2.75;;;;;;;;;;5032115;28;20664;-64
2023/03/27 05:35:05;;;;;;;7.15;1.95;;;;;;;;;;5031970;28;20037;-64
2023/03/27 05:37:32;;;;;;;5.40;2.00;;;;;;;;;;5032179;28;20462;-64
2023/03/27 05:39:59;;;;;;;4.13;1.73;;;;;;;;;;5030564;28;20017;-65
2023/03/27 05:42:25;;;;;;;11.00;1.80;;;;;;;;;;5031977;28;20095;-64
2023/03/27 05:44:51;;;;;;;9.27;2.33;;;;;;;;;;5032225;28;20026;-63
2023/03/27 05:47:19;;;;;;;4.40;1.52;;;;;;;;;;5030725;28;20087;-64
2023/03/27 05:49:45;;;;;;;3.10;1.77;;;;;;;;;;5032043;28;20025;-63
2023/03/27 05:52:11;;;;;;;5.00;1.58;;;;;;;;;;5031377;28;20091;-63
2023/03/27 05:54:37;;;;;;;6.18;1.55;;;;;;;;;;5031887;28;20512;-65
2023/03/27 05:57:03;;;;;;;9.93;1.83;;;;;;;;;;5032011;28;20606;-66
2023/03/27 05:59:29;;;;;;;4.90;1.45;;;;;;;;;;5031687;28;20099;-64
2023/03/27 06:01:57;;;;;;;6.80;1.95;;;;;;;;;;5032464;28;20029;-63
2023/03/27 06:04:24;;;;;;;3.55;1.40;;;;;;;;;;5058214;28;20384;-63
2023/03/27 06:06:50;;;;;;;7.55;1.65;;;;;;;;;;5038306;28;20057;-63
2023/03/27 06:09:16;;;;;;;2.55;1.40;;;;;;;;;;5051408;28;20083;-63
2023/03/27 06:11:42;;;;;;;6.70;1.88;;;;;;;;;;5046761;28;20059;-64
2023/03/27 06:14:08;;;;;;;5.90;1.80;;;;;;;;;;5031536;28;20018;-64
2023/03/27 06:16:34;;;;;;;9.10;1.80;;;;;;;;;;5040357;28;20033;-63
2023/03/27 06:19:01;;;;;;;9.73;2.42;;;;;;;;;;5050992;28;20025;-63
2023/03/27 06:21:27;;;;;;;7.10;1.42;;;;;;;;;;5051239;28;20029;-64
2023/03/27 06:23:55;;;;;;;5.03;1.70;;;;;;;;;;5051369;28;20024;-64
2023/03/27 06:26:21;;;;;;;12.35;2.17;;;;;;;;;;5047098;28;20489;-65
2023/03/27 06:28:47;;;;;;;5.47;1.75;;;;;;;;;;5033710;28;20036;-64
2023/03/27 06:31:13;;;;;;;8.05;1.50;;;;;;;;;;5031114;28;20029;-64
2023/03/27 06:33:39;;;;;;;3.90;1.67;;;;;;;;;;5048240;28;20053;-64
2023/03/27 06:36:06;;;;;;;4.93;1.73;;;;;;;;;;5046113;28;20021;-64
2023/03/27 06:38:32;;;;;;;5.30;1.80;;;;;;;;;;5048154;28;20056;-63
2023/03/27 06:40:59;;;;;;;4.10;2.00;;;;;;;;;;5041720;28;20045;-63
2023/03/27 06:43:25;;;;;;;8.30;1.85;;;;;;;;;;5040808;28;20088;-64
2023/03/27 06:45:51;;;;;;;7.20;2.15;;;;;;;;;;5049867;28;20028;-64
2023/03/27 06:48:18;;;;;;;6.35;1.80;;;;;;;;;;5053376;28;20055;-63
2023/03/27 06:50:45;;;;;;;6.60;1.92;;;;;;;;;;5050097;28;20516;-65
2023/03/27 06:53:15;;;;;;;5.28;2.03;;;;;;;;;;5050128;28;20033;-64
2023/03/27 06:55:41;;;;;;;7.82;2.58;;;;;;;;;;5048669;28;20053;-63
2023/03/27 06:58:07;;;;;;;7.20;2.13;;;;;;;;;;5045209;28;20389;-63
2023/03/27 07:00:36;;;;;;;6.00;2.70;;;;;;;;;;5032813;28;20112;-64
2023/03/27 07:03:03;;;;;;;7.70;2.30;;;;;;;;;;5039160;28;20663;-63
2023/03/27 07:05:31;;;;;;;4.82;2.53;;;;;;;;;;5051029;28;20237;-63
2023/03/27 07:07:57;;;;;;;5.55;2.03;;;;;;;;;;5047890;28;20083;-63
2023/03/27 07:10:24;;;;;;;16.25;3.28;;;;;;;;;;5032782;28;20061;-62
2023/03/27 07:12:51;;;;;;;6.13;1.98;;;;;;;;;;5050753;28;20032;-65
2023/03/27 07:15:18;;;;;;;10.40;1.90;;;;;;;;;;5042021;28;20481;-63
2023/03/27 07:17:51;;;;;;;7.13;1.73;;;;;;;;;;5041252;28;20044;-64
2023/03/27 07:20:18;;;;;;;9.85;1.83;;;;;;;;;;5048764;28;20064;-65
2023/03/27 07:22:44;;;;;;;5.05;2.33;;;;;;;;;;5048069;28;20060;-64
2023/03/27 07:25:13;;;;;;;5.95;1.50;;;;;;;;;;5050639;28;20032;-63
2023/03/27 07:27:40;;;;;;;5.72;2.47;;;;;;;;;;5048612;28;20111;-62
2023/03/27 07:30:07;;;;;;;7.07;2.13;;;;;;;;;;5035463;28;20032;-64
2023/03/27 07:32:34;;;;;;;6.22;2.25;;;;;;;;;;5028880;28;20030;-63
2023/03/27 07:35:01;;;;;;;8.50;1.92;;;;;;;;;;5030748;28;20041;-63
2023/03/27 07:37:27;;;;;;;6.95;2.10;;;;;;;;;;5029344;28;20064;-64
2023/03/27 07:39:53;;;;;;;5.40;1.67;;;;;;;;;;5030757;28;20107;-64
2023/03/27 07:42:19;;;;;;;6.53;1.90;;;;;;;;;;5030705;28;20064;-63
2023/03/27 07:44:45;;;;;;;6.55;1.60;;;;;;;;;;5030826;28;20444;-64
2023/03/27 07:47:11;;;;;;;6.88;1.73;;;;;;;;;;5030666;28;20120;-64
2023/03/27 07:49:37;;;;;;;6.00;1.60;;;;;;;;;;5032732;28;20021;-64
2023/03/27 07:52:04;;;;;;;5.70;1.60;;;;;;;;;;5034366;28;20075;-64
2023/03/27 07:54:30;;;;;;;7.15;2.10;;;;;;;;;;5034183;28;20036;-64
2023/03/27 07:56:57;;;;;;;4.30;1.35;;;;;;;;;;5016566;28;20389;-64
2023/03/27 07:59:23;;;;;;;9.80;2.05;;;;;;;;;;5034327;28;20442;-63
2023/03/27 08:01:49;;;;;;;5.85;1.30;;;;;;;;;;5033905;28;20037;-64
2023/03/27 08:04:19;;;;;;;4.95;1.50;;;;;;;;;;5033438;28;20068;-64
2023/03/27 08:06:45;;;;;;;3.03;1.30;;;;;;;;;;5033683;28;20044;-64
2023/03/27 08:09:11;;;;;;;5.28;1.50;;;;;;;;;;5033838;28;20356;-64
2023/03/27 08:11:38;;;;;;;3.08;1.35;;;;;;;;;;5033958;28;20378;-65
2023/03/27 08:14:04;;;;;;;6.93;1.70;;;;;;;;;;5033796;28;20422;-64
2023/03/27 08:16:30;;;;;;;7.07;1.42;;;;;;;;;;5033766;28;20497;-64
2023/03/27 08:18:57;;;;;;;4.63;1.52;;;;;;;;;;5033330;28;20371;-64
2023/03/27 08:21:23;;;;;;;2.90;1.50;;;;;;;;;;5033545;28;20061;-64
2023/03/27 08:23:49;;;;;;;5.00;1.42;;;;;;;;;;5033637;28;20056;-63
2023/03/27 08:26:15;;;;;;;5.78;1.38;;;;;;;;;;5033490;28;20030;-64
2023/03/27 08:28:41;;;;;;;7.95;1.38;;;;;;;;;;5033588;28;20026;-64
2023/03/27 08:31:12;;;;;;;3.22;1.70;;;;;;;;;;5033482;28;20103;-62
2023/03/27 08:33:38;;;;;;;2.95;1.50;;;;;;;;;;5033389;28;20026;-63
2023/03/27 08:36:05;;;;;;;5.80;1.50;;;;;;;;;;5032922;28;20041;-64
2023/03/27 08:38:32;;;;;;;6.63;1.55;;;;;;;;;;5033419;28;20048;-63
2023/03/27 08:40:59;;;;;;;5.82;1.40;;;;;;;;;;5033349;28;20057;-63
2023/03/27 08:43:30;;;;;;;6.00;1.23;;;;;;;;;;5033616;28;20106;-63
2023/03/27 08:45:59;;;;;;;9.68;1.30;;;;;;;;;;5033284;28;20021;-64
2023/03/27 08:48:37;;;;;;;5.28;1.23;;;;;;;;;;5033124;28;20027;-64
2023/03/27 08:51:06;;;;;;;5.03;1.80;;;;;;;;;;5032878;28;20482;-64
2023/03/27 08:53:33;;;;;;;1.92;1.30;;;;;;;;;;5033011;28;20382;-64
2023/03/27 08:56:00;;;;;;;6.20;1.60;;;;;;;;;;5031856;28;20034;-64
2023/03/27 08:58:26;;;;;;;5.75;1.70;;;;;;;;;;5033033;28;20026;-64
2023/03/27 09:01:00;;;;;;;6.75;1.50;;;;;;;;;;5032879;28;20065;-64
2023/03/27 09:03:43;;;;;;;5.18;1.30;;;;;;;;;;5032857;28;20096;-64
2023/03/27 09:06:15;;;;;;;6.57;1.40;;;;;;;;;;5032909;28;20110;-64
2023/03/27 09:08:44;;;;;;;7.57;1.58;;;;;;;;;;5032096;28;20021;-63
2023/03/27 09:11:19;;;;;;;6.55;1.23;;;;;;;;;;5032725;28;20545;-63
2023/03/27 09:13:46;;;;;;;4.20;1.10;;;;;;;;;;5032755;28;20028;-64
2023/03/27 09:16:20;;;;;;;4.20;1.10;;;;;;;;;;5032736;28;20029;-64
2023/03/27 09:18:51;;;;;;;5.63;1.08;;;;;;;;;;5032508;28;20049;-64
2023/03/27 09:21:18;;;;;;;;;;;;;;;;;;5032909;28;20033;-64
2023/03/27 09:23:45;;;;;;;3.83;1.10;;;;;;;;;;5032634;28;19905;-62
2023/03/27 09:26:17;;;;;;;6.63;1.25;;;;;;;;;;5031728;28;20124;-64
2023/03/27 09:28:44;;;;;;;6.88;1.40;;;;;;;;;;5032319;28;20529;-64
2023/03/27 09:31:23;;;;;;;4.32;1.20;;;;;;;;;;5032547;28;20056;-64
2023/03/27 09:33:50;;;;;;;4.00;1.55;;;;;;;;;;5032338;28;20026;-63
2023/03/27 09:36:16;;;;;;;5.22;1.30;;;;;;;;;;5030829;28;20449;-64
2023/03/27 09:38:45;;;;;;;2.63;1.15;;;;;;;;;;5032088;28;20087;-64
2023/03/27 09:41:14;;;;;;;5.68;1.95;;;;;;;;;;5032090;28;20050;-63
2023/03/27 09:44:09;;;;;;;4.20;1.10;;;;;;;;;;5031627;28;20075;-64
2023/03/27 09:46:37;;;;;;;4.55;1.27;;;;;;;;;;5031287;28;20041;-64
2023/03/27 09:49:03;;;;;;;5.95;2.15;;;;;;;;;;5031855;28;20096;-63
2023/03/27 09:51:36;;;;;;;4.22;1.10;;;;;;;;;;5032028;28;20528;-63
2023/03/27 09:54:03;;;;;;;4.97;1.60;;;;;;;;;;5032343;28;20489;-64
2023/03/27 09:56:29;;;;;;;4.53;0.95;;;;;;;;;;5031995;28;20030;-64
2023/03/27 09:58:59;;;;;;;2.65;0.90;;;;;;;;;;5031190;28;20071;-63
2023/03/27 10:01:34;;;;;;;6.50;1.15;;;;;;;;;;5031624;28;20040;-63
2023/03/27 10:04:09;;;;;;;3.65;1.08;;;;;;;;;;5031863;28;20029;-63
2023/03/27 10:06:39;;;;;;;1.77;0.90;;;;;;;;;;5031956;28;20029;-63
2023/03/27 10:09:12;;;;;;;1.25;0.70;;;;;;;;;;5032028;28;20022;-62
2023/03/27 10:11:39;;;;;;;2.28;0.70;;;;;;;;;;5031262;28;20115;-63
2023/03/27 10:14:12;;;;;;;2.42;0.82;;;;;;;;;;5031443;28;20512;-64
2023/03/27 10:16:39;;;;;;;2.67;1.15;;;;;;;;;;5031143;28;20072;-63
2023/03/27 10:19:05;;;;;;;4.57;0.90;;;;;;;;;;5031445;28;20032;-63
2023/03/27 10:21:33;;;;;;;5.47;2.05;;;;;;;;;;5031533;28;20035;-65
2023/03/27 10:24:05;;;;;;;4.22;0.70;;;;;;;;;;5031451;28;20148;-63
2023/03/27 10:26:32;;;;;;;3.50;1.05;;;;;;;;;;5030217;28;20128;-63
2023/03/27 10:29:04;;;;;;;3.00;0.77;;;;;;;;;;5031591;28;20025;-63
2023/03/27 10:31:30;;;;;;;2.25;0.70;;;;;;;;;;5030656;28;20363;-63
2023/03/27 10:33:56;;;;;;;3.65;0.80;;;;;;;;;;5031423;28;20037;-64
2023/03/27 10:36:24;;;;;;;1.77;0.82;;;;;;;;;;5029848;28;20053;-63
2023/03/27 10:38:56;;;;;;;3.40;0.75;;;;;;;;;;5031788;28;20018;-66
2023/03/27 10:41:23;;;;;;;2.88;0.70;;;;;;;;;;5031050;28;20124;-64
2023/03/27 10:43:49;;;;;;;2.08;0.80;;;;;;;;;;5031218;28;20025;-64
2023/03/27 10:46:29;;;;;;;7.50;1.90;;;;;;;;;;5030575;28;20478;-63
2023/03/27 10:49:01;;;;;;;0.73;0.50;;;;;;;;;;5031329;28;20033;-63
2023/03/27 10:51:42;;;;;;;2.80;0.80;;;;;;;;;;5031333;28;20117;-64
2023/03/27 10:54:08;;;;;;;2.25;0.90;;;;;;;;;;5030979;28;20091;-63
2023/03/27 10:56:38;;;;;;;4.18;0.80;;;;;;;;;;5029754;28;20030;-63
2023/03/27 10:59:08;;;;;;;3.50;0.70;;;;;;;;;;5031451;28;20108;-63
2023/03/27 11:01:40;;;;;;;3.28;0.80;;;;;;;;;;5031030;28;20477;-63
2023/03/27 11:04:07;;;;;;;4.35;0.98;;;;;;;;;;5030435;28;20124;-63
2023/03/27 11:06:35;;;;;;;1.95;0.80;;;;;;;;;;5031114;28;20026;-63
2023/03/27 11:09:22;;;;;;;1.95;0.73;;;;;;;;;;5031150;28;20112;-63
2023/03/27 11:11:59;;;;;;;2.95;0.70;;;;;;;;;;5031138;28;20030;-63
2023/03/27 11:14:38;;;;;;;4.70;0.90;;;;;;;;;;5031352;28;20034;-64
2023/03/27 11:17:06;;;;;;;4.82;0.75;;;;;;;;;;5031329;28;20033;-64
2023/03/27 11:19:52;;;;;;;4.47;0.95;;;;;;;;;;5030507;28;20033;-64
2023/03/27 11:22:31;;;;;;;2.78;0.80;;;;;;;;;;5030927;28;20034;-63
2023/03/27 11:25:17;;;;;;;1.27;0.77;;;;;;;;;;5034676;28;20022;-63
2023/03/27 11:27:59;;;;;;;2.60;0.82;;;;;;;;;;5034742;28;20038;-64
2023/03/27 11:30:25;;;;;;;2.38;0.80;;;;;;;;;;5034248;28;20029;-64
2023/03/27 11:33:10;;;;;;;6.90;1.15;;;;;;;;;;5034747;28;20076;-64
2023/03/27 11:35:39;;;;;;;2.38;0.95;;;;;;;;;;5034567;28;20025;-64
2023/03/27 11:38:27;;;;;;;5.40;0.95;;;;;;;;;;5034381;28;20057;-64
2023/03/27 11:40:55;;;;;;;4.38;1.00;;;;;;;;;;5034397;28;20064;-64
2023/03/27 11:43:21;;;;;;;3.03;0.98;;;;;;;;;;5034399;28;20040;-64
2023/03/27 11:46:13;;;;;;;3.38;1.52;;;;;;;;;;5034457;28;20032;-64
2023/03/27 11:48:58;;;;;;;3.83;0.90;;;;;;;;;;5033675;28;20512;-64
2023/03/27 11:51:30;;;;;;;5.90;1.10;;;;;;;;;;5033254;28;20440;-63
2023/03/27 11:54:19;;;;;;;4.85;1.00;;;;;;;;;;5034034;28;20482;-64
2023/03/27 11:56:51;;;;;;;1.85;1.00;;;;;;;;;;5033943;28;20039;-63
2023/03/27 11:59:35;;;;;;;0.80;0.80;;;;;;;;;;5034228;28;20393;-64
2023/03/27 12:02:20;;;;;;;3.55;1.20;;;;;;;;;;5033957;28;20041;-63
2023/03/27 12:04:47;;;;;;;3.85;0.80;;;;;;;;;;5033498;28;20025;-64
2023/03/27 12:07:39;;;;;;;2.75;0.77;;;;;;;;;;5033999;28;20022;-64
2023/03/27 12:10:27;;;;;;;3.58;1.00;;;;;;;;;;5033549;28;20411;-64
2023/03/27 12:12:53;;;;;;;2.08;1.00;;;;;;;;;;5033748;28;20036;-62
2023/03/27 12:15:49;;;;;;;6.85;1.10;;;;;;;;;;5033988;28;20028;-63
2023/03/27 12:18:20;;;;;;;2.40;0.70;;;;;;;;;;5033133;28;20584;-63
2023/03/27 12:21:05;;;;;;;4.75;1.65;;;;;;;;;;5033712;28;20064;-63
2023/03/27 12:23:31;;;;;;;2.83;0.95;;;;;;;;;;5033805;28;20033;-63
2023/03/27 12:26:16;;;;;;;1.13;0.80;;;;;;;;;;5033872;28;20025;-64
2023/03/27 12:28:52;;;;;;;1.95;1.10;;;;;;;;;;5033649;28;20034;-63
2023/03/27 12:31:18;;;;;;;4.75;1.00;;;;;;;;;;5032063;28;20091;-62
2023/03/27 12:33:54;;;;;;;4.85;1.10;;;;;;;;;;5033437;28;20025;-63
2023/03/27 12:36:22;;;;;;;2.72;0.80;;;;;;;;;;5033570;28;20470;-63
2023/03/27 12:38:48;;;;;;;5.90;1.23;;;;;;;;;;5032968;28;20038;-64
2023/03/27 12:41:25;;;;;;;2.60;0.85;;;;;;;;;;5032793;28;20041;-62
2023/03/27 12:43:55;;;;;;;2.67;1.00;;;;;;;;;;5033319;28;20052;-63
2023/03/27 12:46:25;;;;;;;6.65;1.52;;;;;;;;;;5033410;28;20421;-63
2023/03/27 12:48:54;;;;;;;1.27;0.75;;;;;;;;;;5033722;28;20458;-64
2023/03/27 12:51:34;;;;;;;5.15;0.90;;;;;;;;;;5033170;28;20042;-65
2023/03/27 12:54:11;;;;;;;4.18;1.00;;;;;;;;;;5033041;28;20409;-64
2023/03/27 12:56:38;;;;;;;5.07;1.10;;;;;;;;;;5033303;28;20104;-64
2023/03/27 12:59:14;;;;;;;3.97;0.95;;;;;;;;;;5032375;28;20364;-64
2023/03/27 13:01:43;;;;;;;4.18;1.02;;;;;;;;;;5032874;28;20025;-63
2023/03/27 13:04:28;;;;;;;1.35;0.63;;;;;;;;;;5033039;28;20032;-64
2023/03/27 13:06:54;;;;;;;5.75;1.00;;;;;;;;;;5033258;28;20374;-63
2023/03/27 13:09:20;;;;;;;3.85;1.20;;;;;;;;;;5032472;28;20096;-64
2023/03/27 13:11:48;;;;;;;3.50;1.30;;;;;;;;;;5047957;28;20144;-64
2023/03/27 13:14:33;;;;;;;3.67;1.02;;;;;;;;;;5032496;28;20497;-63
2023/03/27 13:17:01;;;;;;;5.30;1.10;;;;;;;;;;5032306;28;20037;-63
2023/03/27 13:19:34;;;;;;;5.70;0.93;;;;;;;;;;5033130;28;20118;-64
2023/03/27 13:22:18;;;;;;;5.63;1.30;;;;;;;;;;5032743;28;20025;-63
2023/03/27 13:24:51;;;;;;;3.30;1.10;;;;;;;;;;5032644;28;20118;-64
2023/03/27 13:27:17;;;;;;;3.03;0.95;;;;;;;;;;5032358;28;20048;-65
2023/03/27 13:29:47;;;;;;;4.35;0.90;;;;;;;;;;5032434;28;20413;-63
2023/03/27 13:32:31;;;;;;;3.42;1.00;;;;;;;;;;5032369;28;20046;-63
2023/03/27 13:35:03;;;;;;;5.28;1.10;;;;;;;;;;5031867;28;20029;-64
2023/03/27 13:37:29;;;;;;;3.22;1.05;;;;;;;;;;5032139;28;20486;-63
2023/03/27 13:39:56;;;;;;;4.05;1.00;;;;;;;;;;5032009;28;20036;-63
2023/03/27 13:42:26;;;;;;;4.00;1.00;;;;;;;;;;5032168;28;20026;-64
2023/03/27 13:45:04;;;;;;;4.25;0.85;;;;;;;;;;5032445;28;20030;-64
2023/03/27 13:47:33;;;;;;;2.42;0.95;;;;;;;;;;5030826;28;20555;-64
2023/03/27 13:50:09;;;;;;;7.32;1.13;;;;;;;;;;5032182;28;20370;-63
2023/03/27 13:52:46;;;;;;;2.33;0.80;;;;;;;;;;5031970;28;20175;-65
2023/03/27 13:55:21;;;;;;;4.07;0.88;;;;;;;;;;5032126;28;20021;-64
2023/03/27 13:58:06;;;;;;;3.17;0.80;;;;;;;;;;5032292;28;20025;-64
2023/03/27 14:00:53;;;;;;;3.83;1.23;;;;;;;;;;5031764;28;20025;-64
2023/03/27 14:03:39;;;;;;;4.35;0.70;;;;;;;;;;5019712;28;20103;-65
2023/03/27 14:06:21;;;;;;;0.85;0.73;;;;;;;;;;5030464;28;20033;-62
2023/03/27 14:08:47;;;;;;;;;;;;;;;;;;5032198;28;20025;-62
2023/03/27 14:11:16;;;;;;;1.58;0.70;;;;;;;;;;5031376;28;19913;-63
2023/03/27 14:13:42;;;;;;;2.20;0.80;;;;;;;;;;5031588;28;20512;-62
2023/03/27 14:16:28;;;;;;;4.18;0.93;;;;;;;;;;5031697;28;20025;-62
2023/03/27 14:19:06;;;;;;;1.40;0.70;;;;;;;;;;5031238;28;20025;-63
2023/03/27 14:21:48;;;;;;;2.10;0.60;;;;;;;;;;5031523;28;20034;-63
2023/03/27 14:24:23;;;;;;;3.20;0.77;;;;;;;;;;5031748;28;20026;-63
2023/03/27 14:26:51;;;;;;;4.47;0.80;;;;;;;;;;5031441;28;20041;-62
2023/03/27 14:29:20;;;;;;;2.15;0.70;;;;;;;;;;5031761;28;20026;-63
2023/03/27 14:31:46;;;;;;;3.13;0.70;;;;;;;;;;5031452;28;20444;-64
2023/03/27 14:34:12;;;;;;;2.80;0.60;;;;;;;;;;5031298;28;20017;-64
2023/03/27 14:36:41;;;;;;;1.42;0.70;;;;;;;;;;5030855;28;20029;-64
2023/03/27 14:39:36;;;;;;;2.65;0.68;;;;;;;;;;5033325;28;20025;-62
2023/03/27 14:42:02;;;;;;;3.45;0.60;;;;;;;;;;5042628;28;20057;-63
2023/03/27 14:44:32;;;;;;;4.03;0.70;;;;;;;;;;5043990;28;20024;-62
2023/03/27 14:47:02;;;;;;;4.72;0.90;;;;;;;;;;5050990;28;20112;-64
2023/03/27 14:49:37;;;;;;;2.35;0.60;;;;;;;;;;5047597;28;20634;-64
2023/03/27 14:52:06;;;;;;;2.03;0.80;;;;;;;;;;5031148;28;20128;-64
2023/03/27 14:54:33;;;;;;;4.88;0.90;;;;;;;;;;5030701;28;20634;-62
2023/03/27 14:57:00;;;;;;;2.03;0.77;;;;;;;;;;5031726;28;20032;-63
2023/03/27 14:59:29;;;;;;;3.10;0.60;;;;;;;;;;5034864;28;20124;-63
2023/03/27 15:01:57;;;;;;;2.40;0.60;;;;;;;;;;5036798;28;20035;-63